This demonstration page uses our WeatherBlox Daily Observations layout. Learn more.

Left ArrowRight Arrow

Hourly Observations for December 25, 2020

Temp ( °F °C ) Dew Point ( °F °C ) Humidity (%) Winds ( mph kmh ) Pressure ( in mb ) Visibility ( mi km ) Precip ( " mm )
12:51 am 00:51 Clear 40 4.4 2 -16.7 20 20 SSE 12 19 30.29 1026 10 16.0934 0 0
1:51 am 01:51 Clear 39 3.9 4 -15.6 23 23 SE 14 22 30.3 1026 10 16.0934 0 0
2:51 am 02:51 Clear 36 2.2 2 -16.7 23 23 SE 12 19 30.29 1026 10 16.0934 0 0
3:51 am 03:51 Clear 36 2.2 0 -17.8 21 21 ESE 10 17 30.27 1025 10 16.0934 0 0
4:51 am 04:51 Clear 33 0.6 1 -17.2 25 25 E 8 13 30.29 1026 10 16.0934 0 0
5:51 am 05:51 Clear 34 1.1 4 -15.6 28 28 E 9 15 30.29 1026 10 16.0934 0 0
6:51 am 06:51 Clear 37 2.8 4 -15.6 25 25 ESE 12 19 30.29 1026 10 16.0934 0 0
7:51 am 07:51 Sunny 38 3.3 5 -15 25 25 ESE 12 19 30.3 1026 10 16.0934 0 0
8:51 am 08:51 Sunny 39 3.9 5 -15 24 24 E 9 15 30.33 1027 10 16.0934 0 0
9:51 am 09:51 Cloudy 43 6.1 5 -15 21 21 ESE 10 17 30.3 1026 10 16.0934 0 0
10:51 am 10:51 Sunny 47 8.3 6 -14.4 19 19 ESE 15 24 30.29 1026 10 16.0934 0 0
11:51 am 11:51 Mostly Cloudy 47 8.3 5 -15 18 18 E 12 19 30.25 1024 10 16.0934 0 0
12:51 pm 12:51 Sunny 49 9.4 5 -15 16 16 SSE 12 19 30.2 1023 10 16.0934 0 0
1:51 pm 13:51 Sunny 51 10.6 5 -15 15 15 S 6 9 30.17 1022 10 16.0934 0 0
2:51 pm 14:51 Sunny 53 11.7 4 -15.6 13 13 S 10 17 30.15 1021 10 16.0934 0 0
3:51 pm 15:51 Sunny 54 12.2 4 -15.6 13 13 SSE 7 11 30.14 1021 10 16.0934 0 0
4:51 pm 16:51 Sunny 53 11.7 6 -14.4 15 15 S 7 11 30.14 1021 10 16.0934 0 0
5:51 pm 17:51 Clear 47 8.3 8 -13.3 20 20 Calm 30.17 1022 10 16.0934 0 0
6:51 pm 18:51 Clear 42 5.6 9 -12.8 25 25 ENE 5 7 30.17 1022 10 16.0934 0 0
7:51 pm 19:51 Clear 39 3.9 10 -12.2 30 30 E 8 13 30.19 1022 10 16.0934 0 0
8:51 pm 20:51 Clear 40 4.4 10 -12.2 29 29 E 7 11 30.17 1022 10 16.0934 0 0
9:51 pm 21:51 Clear 38 3.3 10 -12.2 31 31 E 8 13 30.18 1022 10 16.0934 0 0
10:51 pm 22:51 Clear 36 2.2 10 -12.2 34 34 E 6 9 30.18 1022 10 16.0934 0 0
11:51 pm 23:51 Clear 32 0 10 -12.2 40 40 W 3 6 30.2 1023 10 16.0934 0 0

Powered by AerisWeather